Alliance, OH

6:45 AM EDT on March 27, 2015 (GMT -0400)
Alliance WX | | Change Station
CLOSE
Current Station
Personal Weather Station
Location: Alliance, OH
Elevation: 1204 ft
Nearby Weather Stations

Elev 1204 ft 40.92 °N, 81.13 °W | Updated 8 minutes ago

Overcast
Overcast
32.6 °F
Feels Like 33 °F
N
0.0
Wind Variable Wind from NW
Gusts 2.0 mph

Today
High -- | Low -- °F
--% Chance of Precip.
Yesterday
High -- | Low -- °F
Precip. -- in
7:16 AM 7:43 PM
Waxing Crescent, 51% visible
Pressure 29.90 in
Visibility 10.0 miles
Clouds Overcast 4500 ft
Windchill 33 °F
Dew Point 29 °F
Humidity 85%
Rainfall 0.00 in
Snow Depth Not available.
UV 0 out of 12
Pollen .70 out of 12
Air Quality Not available.
Flu Activity Not available.
METAR KCAK 270951Z 34008KT 10SM OVC045 00/M04 A2987 RMK AO2 SLP125 T00001039

More Conditions Fewer Conditions

Pressure 29.90 in
Visibility 10.0 miles
Clouds Overcast 4500 ft
Windchill 33 °F
Dew Point 29 °F
Humidity 85%
Rainfall 0.00 in
Snow Depth Not available.
UV 0 out of 12
Pollen .70 out of 12
Air Quality Not available.
Flu Activity Not available.
METAR KCAK 270951Z 34008KT 10SM OVC045 00/M04 A2987 RMK AO2 SLP125 T00001039

More Conditions Fewer Conditions

10-Day Weather Forecast

Almanac

Astronomy

Mar. 27, 2015 Rise Set
Actual Time
Civil Twilight
Nautical Twilight
Astronomical Twilight
Moon
Length of Visible Light
Length of Day
Tomorrow will be .
, % of the Moon is Illuminated

Today's Extremes

State Highs State Lows

Community

WunderPhotos

Upload Photos

1,808,706 photos uploaded!

WunderBlogs® & News

Nearby

Air Quality

  Air Quality AQ Index Pollutant
Not available.

Snow Depth

Station Depth Elevation

Earthquake Activity

City Distance Mag. Time & Date
Minimum magnitude displayed is 2.5.

Coastal Water Temperatures

Place Temperature

Stations

Nearby Weather Stations

Station Location Temp. Windchill Dew Point Humidity Wind Precip. Elev Updated Type